YPKG

Details ICAO YPKG (KGI)
Name Kalgoorlie-Boulder
Region Australia
Timezone Australia/Perth (UTC+8.0)
Plans Departing 55
Arriving 69
Stats Elevation 1,202 ft / 366 m (AMSL)
Location -30.789100° 121.463000°
Runways 2
Magnetic Variation 0.813° E
Sunrise 2019-05-21 22:38:46 UTC / 2019-05-22 06:38:46 Local
Sunset 2019-05-22 09:05:38 UTC / 2019-05-22 17:05:38 Local
Advertisement - Login to hide

Runways

ID Width Length Bearing (true/mag) Surface Threshold Overrun Markings Lighting
11 148 ft / 45 m 6,550 ft / 1,997 m 110.61° / 109.79° ASPHALT 0 ft / 0 m 0 ft / 0 m APP EDGE THRESHOLD
18 59 ft / 18 m 3,949 ft / 1,204 m 5.53° / 4.72° ASPHALT 0 ft / 0 m 0 ft / 0 m VISUAL EDGE THRESHOLD
29 148 ft / 45 m 6,550 ft / 1,997 m 290.60° / 289.78° ASPHALT 0 ft / 0 m 0 ft / 0 m APP EDGE THRESHOLD
36 59 ft / 18 m 3,949 ft / 1,204 m 185.53° / 184.72° ASPHALT 0 ft / 0 m 0 ft / 0 m VISUAL EDGE THRESHOLD

Map

Weather


0- 5 10 15 20 25 30 35+ Temperature / °C

Clouds and Precipitation
Forecast for 2019-05-22 00:00 UTC. Updated 3 hours ago

Ground ~20,000 ft ~40,000 ft Winds

METAR

YPKG 220000Z AUTO 14003KT 9999 // NCD 14/10 Q1024 RF00.0/000.0

TAF

TAF YPKG 212305Z 2200/2224 04008KT CAVOK FM220900 VRB05KT CAVOK

Frequencies

Unicom 126.60 MHz AIR BP UNIC
Unicom 122.10 MHz MELBOURNE CENTRE MULT
Unicom 120.60 MHz ACTIVATE LIGHTS ONLY MULT
Warning: Do not use this data for real-world aviation or navigation. No guarantee of current accuracy is given.